createdAt,value
2022-10-31T00:00:27.970Z,101068.97
2022-10-31T00:03:32.263Z,101066.88
2022-10-31T00:06:37.570Z,101062.34
2022-10-31T00:09:41.597Z,101062.19
2022-10-31T00:12:45.187Z,101065.53
2022-10-31T00:15:53.211Z,101064.69
2022-10-31T00:19:02.997Z,101059.38
2022-10-31T00:22:10.030Z,101051.78
2022-10-31T00:25:15.929Z,101061.03
2022-10-31T00:28:22.610Z,101062.62
2022-10-31T00:31:29.959Z,101060.97
2022-10-31T00:34:37.893Z,101059.16
2022-10-31T00:37:45.821Z,101065.66
2022-10-31T00:40:55.101Z,101057.00
2022-10-31T00:44:00.965Z,101056.12
2022-10-31T00:47:08.152Z,101051.47
2022-10-31T00:50:17.422Z,101056.94
2022-10-31T00:53:24.743Z,101049.75
2022-10-31T00:56:30.142Z,101044.06
2022-10-31T00:59:38.240Z,101044.53
2022-10-31T01:02:44.450Z,101044.06
2022-10-31T01:06:19.463Z,101051.88
2022-10-31T01:09:28.050Z,101050.22
2022-10-31T01:12:48.242Z,101043.78
2022-10-31T01:15:58.311Z,101046.22
2022-10-31T01:19:05.218Z,101041.50
2022-10-31T01:22:11.565Z,101034.44
2022-10-31T01:25:19.263Z,101037.09
2022-10-31T01:28:27.371Z,101036.28
2022-10-31T01:31:38.619Z,101032.56
2022-10-31T01:34:45.876Z,101037.88
2022-10-31T01:37:54.941Z,101025.00
2022-10-31T01:41:01.607Z,101030.16
2022-10-31T01:44:18.501Z,101022.81
2022-10-31T01:47:43.978Z,101019.63
2022-10-31T01:50:54.026Z,101024.22
2022-10-31T01:54:03.216Z,101024.84
2022-10-31T01:57:13.505Z,101021.34
2022-10-31T02:00:19.338Z,101018.31
2022-10-31T02:03:27.956Z,101020.19
2022-10-31T02:06:38.170Z,101029.06
2022-10-31T02:09:46.087Z,101025.28
2022-10-31T02:12:57.673Z,101020.97
2022-10-31T02:16:04.443Z,101018.88
2022-10-31T02:19:15.550Z,101022.16
2022-10-31T02:22:27.634Z,101011.19
2022-10-31T02:25:55.804Z,101010.06
2022-10-31T02:29:05.890Z,101013.03
2022-10-31T02:32:15.715Z,101007.09
2022-10-31T02:35:37.981Z,101017.34
2022-10-31T02:39:05.274Z,101015.41
2022-10-31T02:42:18.150Z,101017.91
2022-10-31T02:45:32.422Z,101021.44
2022-10-31T02:48:41.740Z,101026.56
2022-10-31T02:51:50.632Z,101030.66
2022-10-31T02:54:58.272Z,101030.75
2022-10-31T02:58:10.308Z,101027.25
2022-10-31T03:01:36.595Z,101028.47
2022-10-31T03:05:09.304Z,101033.66
2022-10-31T03:08:27.555Z,101037.84
2022-10-31T03:11:43.837Z,101036.22
2022-10-31T03:14:58.747Z,101036.22
2022-10-31T03:18:05.374Z,101044.28
2022-10-31T03:21:12.974Z,101045.25
2022-10-31T03:24:22.151Z,101056.34
2022-10-31T03:27:29.109Z,101047.63
2022-10-31T03:30:39.026Z,101050.13
2022-10-31T03:33:48.337Z,101047.50
2022-10-31T03:36:57.848Z,101048.69
2022-10-31T03:40:07.391Z,101058.66
2022-10-31T03:43:14.837Z,101054.72
2022-10-31T03:46:22.944Z,101055.69
2022-10-31T03:49:30.861Z,101055.25
2022-10-31T03:52:39.088Z,101062.94
2022-10-31T03:55:57.319Z,101054.25
2022-10-31T03:59:07.698Z,101055.22
2022-10-31T04:02:18.405Z,101065.09
2022-10-31T04:05:26.428Z,101058.44
2022-10-31T04:08:38.536Z,101059.03
2022-10-31T04:11:53.410Z,101055.16
2022-10-31T04:15:00.870Z,101051.16
2022-10-31T04:18:08.530Z,101056.75
2022-10-31T04:21:15.027Z,101053.78
2022-10-31T04:24:23.790Z,101057.22
2022-10-31T04:27:29.317Z,101068.66
2022-10-31T04:30:35.661Z,101067.00
2022-10-31T04:33:43.666Z,101067.22
2022-10-31T04:36:52.019Z,101072.62
2022-10-31T04:39:59.067Z,101068.66
2022-10-31T04:43:08.232Z,101065.41
2022-10-31T04:46:15.785Z,101072.38
2022-10-31T04:49:22.032Z,101067.28
2022-10-31T04:52:29.087Z,101072.38
2022-10-31T04:55:35.824Z,101071.53
2022-10-31T04:58:43.787Z,101081.88
2022-10-31T05:01:51.416Z,101076.28
2022-10-31T05:04:58.654Z,101078.19
2022-10-31T05:08:06.180Z,101080.63
2022-10-31T05:11:13.982Z,101070.78
2022-10-31T05:14:21.612Z,101088.91
2022-10-31T05:17:34.520Z,101087.53
2022-10-31T05:20:43.240Z,101075.72
2022-10-31T05:23:52.494Z,101082.16
2022-10-31T05:27:01.588Z,101085.88
2022-10-31T05:30:09.359Z,101077.84
2022-10-31T05:33:17.122Z,101081.25
2022-10-31T05:36:27.479Z,101092.06
2022-10-31T05:39:36.725Z,101092.16
2022-10-31T05:42:44.057Z,101088.94
2022-10-31T05:45:56.198Z,101091.47
2022-10-31T05:49:04.083Z,101101.31
2022-10-31T05:52:17.147Z,101095.81
2022-10-31T05:55:22.970Z,101091.66
2022-10-31T05:58:32.539Z,101092.69
2022-10-31T06:01:38.754Z,101093.38
2022-10-31T06:04:49.940Z,101093.59
2022-10-31T06:07:58.759Z,101100.72
2022-10-31T06:11:07.877Z,101098.91
2022-10-31T06:14:14.367Z,101099.38
2022-10-31T06:17:23.273Z,101089.41
2022-10-31T06:20:31.018Z,101097.87
2022-10-31T06:23:38.795Z,101090.03
2022-10-31T06:26:47.447Z,101090.41
2022-10-31T06:29:57.014Z,101092.69
2022-10-31T06:33:04.486Z,101101.78
2022-10-31T06:36:11.624Z,101108.34
2022-10-31T06:39:17.720Z,101112.19
2022-10-31T06:42:25.913Z,101121.22
2022-10-31T06:45:31.152Z,101126.41
2022-10-31T06:48:48.061Z,101118.56
2022-10-31T06:51:54.229Z,101129.63
2022-10-31T06:55:01.424Z,101136.25
2022-10-31T06:58:11.334Z,101137.06
2022-10-31T07:01:19.078Z,101133.59
2022-10-31T07:04:27.190Z,101127.41
2022-10-31T07:07:34.249Z,101129.16
2022-10-31T07:10:42.384Z,101131.22
2022-10-31T07:13:50.084Z,101131.94
2022-10-31T07:16:59.441Z,101141.59
2022-10-31T07:20:09.010Z,101132.50
2022-10-31T07:23:16.518Z,101132.06
2022-10-31T07:26:22.929Z,101135.34
2022-10-31T07:29:26.888Z,101143.09
2022-10-31T07:32:42.670Z,101150.69
2022-10-31T07:35:49.489Z,101139.34
2022-10-31T07:38:57.027Z,101151.09
2022-10-31T07:42:02.459Z,101149.50
2022-10-31T07:45:12.465Z,101141.41
2022-10-31T07:48:23.550Z,101147.19
2022-10-31T07:51:31.052Z,101149.88
2022-10-31T07:54:41.756Z,101149.41
2022-10-31T07:57:57.438Z,101149.34
2022-10-31T08:01:07.265Z,101146.38
2022-10-31T08:04:17.398Z,101152.72
2022-10-31T08:07:26.750Z,101146.34
2022-10-31T08:10:34.397Z,101152.78
2022-10-31T08:13:41.429Z,101151.78
2022-10-31T08:16:47.763Z,101150.47
2022-10-31T08:19:57.129Z,101151.19
2022-10-31T08:23:07.377Z,101154.66
2022-10-31T08:26:11.948Z,101157.16
2022-10-31T08:29:17.450Z,101154.44
2022-10-31T08:32:23.956Z,101152.06
2022-10-31T08:35:35.154Z,101155.06
2022-10-31T08:38:45.760Z,101152.72
2022-10-31T08:41:54.413Z,101155.44
2022-10-31T08:45:01.859Z,101158.44
2022-10-31T08:48:10.870Z,101153.06
2022-10-31T08:51:17.445Z,101150.06
2022-10-31T08:54:24.531Z,101156.72
2022-10-31T08:57:36.045Z,101152.22
2022-10-31T09:00:42.122Z,101161.31
2022-10-31T09:03:47.695Z,101159.53
2022-10-31T09:07:19.707Z,101167.06
2022-10-31T09:10:17.321Z,101168.00
2022-10-31T09:13:27.425Z,101173.66
2022-10-31T09:16:37.790Z,101169.53
2022-10-31T09:19:44.592Z,101165.47
2022-10-31T09:22:50.004Z,101167.66
2022-10-31T09:25:58.080Z,101168.53
2022-10-31T09:29:04.435Z,101173.84
2022-10-31T09:32:11.810Z,101170.66
2022-10-31T09:35:21.704Z,101169.03
2022-10-31T09:38:31.713Z,101174.72
2022-10-31T09:41:59.887Z,101168.19
2022-10-31T09:45:25.401Z,101178.19
2022-10-31T09:48:36.873Z,101173.94
2022-10-31T09:51:51.917Z,101172.19
2022-10-31T09:55:00.686Z,101179.09
2022-10-31T09:58:10.733Z,101171.34
2022-10-31T10:01:23.250Z,101171.19
2022-10-31T10:04:33.290Z,101175.72
2022-10-31T10:07:43.802Z,101166.38
2022-10-31T10:11:06.406Z,101170.94
2022-10-31T10:14:24.344Z,101168.44
2022-10-31T10:17:33.176Z,101165.59
2022-10-31T10:20:44.741Z,101162.78
2022-10-31T10:23:59.762Z,101162.94
2022-10-31T10:27:08.900Z,101165.03
2022-10-31T10:30:20.867Z,101165.16
2022-10-31T10:33:33.900Z,101160.91
2022-10-31T10:36:46.452Z,101150.91
2022-10-31T10:39:55.486Z,101145.47
2022-10-31T10:43:17.717Z,101150.69
2022-10-31T10:46:54.810Z,101146.38
2022-10-31T10:50:02.807Z,101147.03
2022-10-31T10:53:23.022Z,101149.91
2022-10-31T10:56:38.844Z,101148.97
2022-10-31T10:59:43.102Z,101155.31
2022-10-31T11:02:49.739Z,101156.28
2022-10-31T11:06:03.369Z,101145.31
2022-10-31T11:09:12.782Z,101142.47
2022-10-31T11:12:31.182Z,101144.97
2022-10-31T11:15:42.301Z,101137.97
2022-10-31T11:18:50.022Z,101143.22
2022-10-31T11:21:55.879Z,101135.75
2022-10-31T11:25:00.291Z,101144.09
2022-10-31T11:28:12.738Z,101136.16
2022-10-31T11:31:17.031Z,101135.81
2022-10-31T11:34:29.784Z,101134.31
2022-10-31T11:37:38.287Z,101132.16
2022-10-31T11:40:53.846Z,101127.09
2022-10-31T11:43:59.973Z,101119.03
2022-10-31T11:47:15.169Z,101114.47
2022-10-31T11:50:21.937Z,101123.34
2022-10-31T11:53:32.393Z,101124.50
2022-10-31T11:56:41.852Z,101121.50
2022-10-31T11:59:51.677Z,101117.81
2022-10-31T12:03:15.264Z,101126.84
2022-10-31T12:06:34.131Z,101128.34
2022-10-31T12:09:39.946Z,101123.22
2022-10-31T12:12:48.237Z,101123.88
2022-10-31T12:15:55.783Z,101121.34
2022-10-31T12:19:13.789Z,101125.69
2022-10-31T12:22:28.048Z,101122.03
2022-10-31T12:25:41.463Z,101123.03
2022-10-31T12:28:55.329Z,101123.50
2022-10-31T12:32:13.983Z,101127.28
2022-10-31T12:35:32.040Z,101123.50
2022-10-31T12:39:03.423Z,101131.81
2022-10-31T12:42:31.897Z,101120.63
2022-10-31T12:45:55.089Z,101119.78
2022-10-31T12:49:13.188Z,101113.50
2022-10-31T12:52:21.491Z,101119.16
2022-10-31T12:55:31.074Z,101116.81
2022-10-31T12:58:46.081Z,101110.81
2022-10-31T13:01:55.135Z,101120.00
2022-10-31T13:05:02.999Z,101118.47
2022-10-31T13:08:10.659Z,101108.44
2022-10-31T13:11:18.466Z,101113.53
2022-10-31T13:14:27.765Z,101110.53
2022-10-31T13:17:45.174Z,101106.22
2022-10-31T13:20:55.511Z,101108.50
2022-10-31T13:24:04.184Z,101102.72
2022-10-31T13:27:14.782Z,101106.00
2022-10-31T13:30:23.167Z,101113.34
2022-10-31T13:33:55.959Z,101102.63
2022-10-31T13:37:19.649Z,101110.91
2022-10-31T13:40:35.500Z,101107.84
2022-10-31T13:43:49.391Z,101107.44
2022-10-31T13:46:54.724Z,101102.31
2022-10-31T13:50:21.338Z,101103.44
2022-10-31T13:53:40.022Z,101109.16
2022-10-31T13:56:50.338Z,101109.00
2022-10-31T13:59:57.173Z,101113.00
2022-10-31T14:03:05.344Z,101099.53
2022-10-31T14:06:14.728Z,101099.69
2022-10-31T14:09:23.370Z,101107.69
2022-10-31T14:12:34.603Z,101099.91
2022-10-31T14:15:41.450Z,101102.22
2022-10-31T14:18:54.547Z,101103.59
2022-10-31T14:22:02.201Z,101101.28
2022-10-31T14:25:28.253Z,101100.81
2022-10-31T14:28:36.210Z,101110.09
2022-10-31T14:31:48.382Z,101101.66
2022-10-31T14:35:02.268Z,101099.66
2022-10-31T14:38:14.171Z,101103.66
2022-10-31T14:41:44.544Z,101094.81
2022-10-31T14:45:17.477Z,101090.63
2022-10-31T14:48:23.461Z,101098.25
2022-10-31T14:51:34.609Z,101090.53
2022-10-31T14:54:42.596Z,101104.00
2022-10-31T14:57:54.723Z,101097.22
2022-10-31T15:01:02.101Z,101101.87
2022-10-31T15:04:23.745Z,101107.16
2022-10-31T15:07:30.572Z,101108.03
2022-10-31T15:10:48.132Z,101106.97
2022-10-31T15:13:55.924Z,101103.31
2022-10-31T15:17:04.920Z,101102.28
2022-10-31T15:20:15.118Z,101098.53
2022-10-31T15:23:29.644Z,101099.19
2022-10-31T15:26:38.522Z,101099.34
2022-10-31T15:29:57.458Z,101096.66
2022-10-31T15:33:02.948Z,101103.41
2022-10-31T15:36:28.645Z,101094.69
2022-10-31T15:39:40.632Z,101103.38
2022-10-31T15:42:49.515Z,101100.31
2022-10-31T15:45:54.323Z,101104.56
2022-10-31T15:49:00.657Z,101102.38
2022-10-31T15:52:15.297Z,101105.03
2022-10-31T15:55:24.002Z,101109.19
2022-10-31T15:58:31.089Z,101112.47
2022-10-31T16:01:41.219Z,101109.34
2022-10-31T16:04:58.949Z,101118.25
2022-10-31T16:08:05.585Z,101119.97
2022-10-31T16:11:16.712Z,101118.56
2022-10-31T16:14:25.837Z,101128.69
2022-10-31T16:17:32.525Z,101124.50
2022-10-31T16:20:40.093Z,101132.31
2022-10-31T16:23:50.385Z,101132.00
2022-10-31T16:26:58.383Z,101134.87
2022-10-31T16:30:06.094Z,101135.88
2022-10-31T16:33:32.035Z,101136.72
2022-10-31T16:36:40.558Z,101137.19
2022-10-31T16:39:50.785Z,101149.13
2022-10-31T16:42:58.957Z,101154.50
2022-10-31T16:46:07.009Z,101161.47
2022-10-31T16:49:12.833Z,101151.41
2022-10-31T16:52:19.522Z,101156.09
2022-10-31T16:55:26.027Z,101156.84
2022-10-31T16:58:37.870Z,101162.78
2022-10-31T17:01:48.530Z,101167.94
2022-10-31T17:04:56.960Z,101164.69
2022-10-31T17:08:03.171Z,101171.28
2022-10-31T17:11:11.293Z,101170.91
2022-10-31T17:14:17.981Z,101171.28
2022-10-31T17:17:23.928Z,101173.63
2022-10-31T17:20:32.531Z,101176.47
2022-10-31T17:23:39.951Z,101176.37
2022-10-31T17:26:47.107Z,101170.06
2022-10-31T17:29:52.922Z,101170.31
2022-10-31T17:33:01.660Z,101171.81
2022-10-31T17:36:09.026Z,101173.56
2022-10-31T17:39:19.996Z,101171.63
2022-10-31T17:42:27.721Z,101171.38
2022-10-31T17:45:35.361Z,101167.56
2022-10-31T17:48:44.153Z,101170.84
2022-10-31T17:51:53.326Z,101167.19
2022-10-31T17:55:00.744Z,101170.66
2022-10-31T17:58:15.141Z,101173.38
2022-10-31T18:01:22.390Z,101173.13
2022-10-31T18:04:31.164Z,101170.91
2022-10-31T18:07:40.675Z,101178.44
2022-10-31T18:10:48.074Z,101172.66
2022-10-31T18:13:58.806Z,101169.03
2022-10-31T18:17:05.993Z,101167.72
2022-10-31T18:20:13.961Z,101176.16
2022-10-31T18:23:23.414Z,101167.69
2022-10-31T18:26:28.986Z,101165.75
2022-10-31T18:29:34.340Z,101168.41
2022-10-31T18:32:41.009Z,101171.88
2022-10-31T18:35:50.678Z,101169.97
2022-10-31T18:38:58.579Z,101170.66
2022-10-31T18:42:08.638Z,101170.75
2022-10-31T18:45:32.598Z,101166.13
2022-10-31T18:48:43.897Z,101168.19
2022-10-31T18:51:51.481Z,101165.28
2022-10-31T18:54:54.768Z,101165.28
2022-10-31T18:57:59.281Z,101161.72
2022-10-31T19:01:08.490Z,101163.47
2022-10-31T19:04:15.061Z,101167.81
2022-10-31T19:07:23.946Z,101170.28
2022-10-31T19:10:30.646Z,101165.28
2022-10-31T19:13:38.584Z,101167.88
2022-10-31T19:16:52.005Z,101166.06
2022-10-31T19:19:59.118Z,101169.22
2022-10-31T19:23:04.563Z,101163.16
2022-10-31T19:26:11.421Z,101167.56
2022-10-31T19:29:17.784Z,101156.41
2022-10-31T19:32:24.635Z,101168.47
2022-10-31T19:35:31.649Z,101166.25
2022-10-31T19:38:40.871Z,101163.09
2022-10-31T19:41:47.747Z,101163.78
2022-10-31T19:44:54.157Z,101169.50
2022-10-31T19:47:59.829Z,101168.97
2022-10-31T19:51:08.376Z,101162.63
2022-10-31T19:54:15.698Z,101163.81
2022-10-31T19:57:35.837Z,101159.97
2022-10-31T20:00:49.830Z,101166.84
2022-10-31T20:03:57.429Z,101164.72
2022-10-31T20:07:04.617Z,101166.53
2022-10-31T20:10:13.801Z,101174.72
2022-10-31T20:13:20.941Z,101163.50
2022-10-31T20:16:29.100Z,101166.38
2022-10-31T20:19:35.854Z,101174.22
2022-10-31T20:22:42.812Z,101172.41
2022-10-31T20:25:51.327Z,101173.22
2022-10-31T20:28:59.305Z,101177.91
2022-10-31T20:32:08.073Z,101174.78
2022-10-31T20:35:14.529Z,101182.91
2022-10-31T20:38:23.332Z,101181.63
2022-10-31T20:41:31.176Z,101186.37
2022-10-31T20:44:37.731Z,101177.00
2022-10-31T20:47:44.209Z,101176.72
2022-10-31T20:50:51.672Z,101177.00
2022-10-31T20:53:58.104Z,101173.28
2022-10-31T20:57:03.860Z,101173.69
2022-10-31T21:00:12.971Z,101177.84
2022-10-31T21:03:17.823Z,101175.09
2022-10-31T21:06:24.352Z,101177.31
2022-10-31T21:09:29.803Z,101177.44
2022-10-31T21:12:36.046Z,101178.44
2022-10-31T21:15:42.916Z,101177.41
2022-10-31T21:18:50.550Z,101174.75
2022-10-31T21:21:57.332Z,101176.84
2022-10-31T21:25:04.327Z,101180.00
2022-10-31T21:28:11.971Z,101170.06
2022-10-31T21:31:20.449Z,101174.84
2022-10-31T21:34:27.515Z,101174.72
2022-10-31T21:37:33.921Z,101168.25
2022-10-31T21:40:40.733Z,101167.59
2022-10-31T21:43:56.299Z,101169.09
2022-10-31T21:47:02.571Z,101161.38
2022-10-31T21:50:07.728Z,101152.91
2022-10-31T21:53:30.529Z,101154.16
2022-10-31T21:56:38.503Z,101147.47
2022-10-31T21:59:49.221Z,101153.31
2022-10-31T22:02:55.747Z,101151.56
2022-10-31T22:06:03.973Z,101152.56
2022-10-31T22:09:11.363Z,101150.50
2022-10-31T22:12:17.680Z,101135.94
2022-10-31T22:15:26.458Z,101141.50
2022-10-31T22:18:34.148Z,101147.31
2022-10-31T22:21:44.518Z,101154.38
2022-10-31T22:24:52.623Z,101147.09
2022-10-31T22:27:58.540Z,101153.28
2022-10-31T22:31:09.393Z,101147.59
2022-10-31T22:34:16.536Z,101153.34
2022-10-31T22:37:22.867Z,101153.78
2022-10-31T22:40:28.009Z,101149.13
2022-10-31T22:43:36.475Z,101148.03
2022-10-31T22:46:41.730Z,101146.22
2022-10-31T22:49:47.725Z,101148.44
2022-10-31T22:52:54.097Z,101143.66
2022-10-31T22:56:01.679Z,101135.13
2022-10-31T22:59:08.898Z,101136.84
2022-10-31T23:02:13.645Z,101138.16
2022-10-31T23:05:17.742Z,101126.44
2022-10-31T23:08:22.487Z,101131.59
2022-10-31T23:11:28.638Z,101138.72
2022-10-31T23:14:31.884Z,101144.72
2022-10-31T23:17:35.586Z,101140.38
2022-10-31T23:23:52.746Z,101135.22
2022-10-31T23:27:11.227Z,101139.69
2022-10-31T23:30:17.815Z,101131.47
2022-10-31T23:33:24.788Z,101129.06
2022-10-31T23:36:32.140Z,101130.44
2022-10-31T23:39:37.599Z,101128.81
2022-10-31T23:42:43.275Z,101118.75
2022-10-31T23:45:50.544Z,101127.66
2022-10-31T23:48:56.614Z,101128.22
2022-10-31T23:52:03.272Z,101131.28
2022-10-31T23:55:13.247Z,101116.06
2022-10-31T23:58:21.539Z,101120.66
